createdAt,value
2019-03-22T00:00:12.883Z,16.17
2019-03-22T00:02:41.357Z,15.40
2019-03-22T00:05:09.947Z,15.35
2019-03-22T00:07:38.405Z,16.37
2019-03-22T00:10:07.065Z,15.72
2019-03-22T00:12:35.515Z,17.02
2019-03-22T00:15:06.782Z,16.50
2019-03-22T00:17:35.227Z,17.65
2019-03-22T00:20:06.331Z,16.75
2019-03-22T00:22:34.780Z,17.92
2019-03-22T00:25:04.603Z,16.20
2019-03-22T00:27:33.043Z,17.40
2019-03-22T00:30:01.535Z,19.37
2019-03-22T00:32:29.977Z,19.12
2019-03-22T00:34:58.420Z,14.05
2019-03-22T00:37:26.879Z,18.00
2019-03-22T00:39:55.340Z,15.08
2019-03-22T00:42:23.862Z,15.38
2019-03-22T00:44:52.307Z,14.80
2019-03-22T00:47:20.755Z,16.80
2019-03-22T00:49:49.218Z,16.60
2019-03-22T00:52:17.751Z,15.95
2019-03-22T00:54:46.199Z,17.45
2019-03-22T00:57:14.656Z,15.23
2019-03-22T00:59:43.112Z,16.50
2019-03-22T01:02:11.559Z,21.12
2019-03-22T01:04:40.020Z,17.17
2019-03-22T01:07:08.539Z,16.10
2019-03-22T01:09:37.007Z,16.85
2019-03-22T01:12:05.448Z,17.30
2019-03-22T01:14:33.899Z,18.95
2019-03-22T01:17:02.353Z,14.68
2019-03-22T01:19:30.810Z,14.15
2019-03-22T01:21:59.267Z,16.65
2019-03-22T01:24:27.719Z,12.78
2019-03-22T01:26:56.179Z,14.33
2019-03-22T01:29:24.632Z,14.78
2019-03-22T01:31:53.614Z,16.10
2019-03-22T01:34:22.064Z,14.15
2019-03-22T01:36:50.682Z,18.00
2019-03-22T01:39:19.136Z,16.20
2019-03-22T01:41:47.581Z,16.37
2019-03-22T01:44:16.068Z,19.60
2019-03-22T01:46:44.519Z,15.53
2019-03-22T01:49:12.976Z,17.55
2019-03-22T01:51:41.448Z,16.82
2019-03-22T01:54:09.891Z,17.10
2019-03-22T01:56:38.341Z,12.65
2019-03-22T01:59:06.780Z,14.45
2019-03-22T02:01:35.309Z,15.10
2019-03-22T02:04:03.831Z,15.98
2019-03-22T02:06:32.275Z,14.07
2019-03-22T02:09:00.739Z,14.30
2019-03-22T02:11:29.183Z,17.32
2019-03-22T02:13:57.639Z,18.57
2019-03-22T02:16:26.091Z,17.60
2019-03-22T02:18:54.565Z,17.15
2019-03-22T02:21:23.017Z,15.15
2019-03-22T02:23:52.272Z,19.07
2019-03-22T02:26:20.989Z,14.73
2019-03-22T02:28:49.451Z,13.65
2019-03-22T02:31:17.898Z,14.53
2019-03-22T02:33:46.350Z,20.10
2019-03-22T02:36:14.904Z,14.07
2019-03-22T02:38:43.363Z,14.40
2019-03-22T02:41:11.796Z,15.13
2019-03-22T02:43:40.439Z,18.55
2019-03-22T02:46:08.891Z,14.07
2019-03-22T02:48:37.432Z,17.12
2019-03-22T02:51:06.041Z,19.10
2019-03-22T02:53:34.520Z,17.92
2019-03-22T02:56:03.102Z,19.35
2019-03-22T02:58:31.702Z,14.03
2019-03-22T03:01:00.222Z,16.10
2019-03-22T03:03:28.665Z,12.98
2019-03-22T03:05:57.220Z,13.00
2019-03-22T03:08:25.665Z,19.57
2019-03-22T03:10:54.109Z,15.08
2019-03-22T03:13:22.593Z,15.70
2019-03-22T03:15:51.125Z,13.78
2019-03-22T03:18:19.568Z,13.80
2019-03-22T03:20:48.028Z,14.50
2019-03-22T03:23:16.552Z,18.82
2019-03-22T03:25:45.004Z,17.12
2019-03-22T03:28:13.542Z,15.80
2019-03-22T03:30:42.045Z,15.05
2019-03-22T03:33:10.510Z,15.35
2019-03-22T03:35:39.029Z,18.40
2019-03-22T03:38:07.540Z,15.78
2019-03-22T03:40:35.999Z,14.93
2019-03-22T03:43:04.584Z,15.93
2019-03-22T03:45:34.780Z,15.28
2019-03-22T03:48:05.355Z,12.78
2019-03-22T03:50:33.947Z,16.60
2019-03-22T03:53:02.483Z,18.32
2019-03-22T03:55:30.980Z,12.47
2019-03-22T03:57:59.514Z,14.98
2019-03-22T04:00:28.027Z,12.70
2019-03-22T04:03:04.944Z,15.00
2019-03-22T04:05:33.433Z,13.93
2019-03-22T04:08:01.904Z,14.50
2019-03-22T04:10:30.354Z,16.95
2019-03-22T04:12:58.791Z,16.57
2019-03-22T04:15:27.268Z,14.50
2019-03-22T04:17:55.798Z,16.40
2019-03-22T04:20:24.241Z,16.10
2019-03-22T04:22:52.689Z,16.65
2019-03-22T04:25:21.182Z,14.65
2019-03-22T04:27:49.703Z,15.65
2019-03-22T04:30:18.209Z,18.50
2019-03-22T04:32:46.680Z,21.07
2019-03-22T04:35:15.294Z,18.42
2019-03-22T04:37:43.804Z,16.62
2019-03-22T04:40:23.895Z,20.27
2019-03-22T04:42:52.553Z,24.27
2019-03-22T04:45:21.138Z,19.25
2019-03-22T04:47:52.391Z,17.10
2019-03-22T04:50:22.160Z,15.50
2019-03-22T04:52:52.051Z,17.20
2019-03-22T04:55:21.943Z,21.40
2019-03-22T04:57:52.435Z,22.90
2019-03-22T05:00:21.557Z,15.20
2019-03-22T05:02:50.435Z,17.10
2019-03-22T05:05:20.323Z,15.85
2019-03-22T05:07:49.708Z,20.27
2019-03-22T05:10:19.200Z,18.15
2019-03-22T05:12:48.489Z,14.20
2019-03-22T05:15:19.671Z,22.25
2019-03-22T05:17:48.956Z,14.68
2019-03-22T05:20:20.529Z,17.07
2019-03-22T05:22:49.801Z,11.73
2019-03-22T05:25:20.104Z,15.35
2019-03-22T05:27:50.405Z,15.65
2019-03-22T05:30:47.783Z,17.57
2019-03-22T05:33:16.300Z,17.20
2019-03-22T05:35:44.747Z,17.35
2019-03-22T05:38:13.219Z,16.05
2019-03-22T05:40:41.730Z,19.07
2019-03-22T05:43:10.211Z,18.90
2019-03-22T05:45:38.671Z,19.98
2019-03-22T05:48:07.200Z,19.85
2019-03-22T05:50:35.708Z,17.52
2019-03-22T05:53:04.234Z,17.40
2019-03-22T05:55:32.773Z,23.47
2019-03-22T05:58:01.254Z,18.75
2019-03-22T06:00:29.760Z,21.93
2019-03-22T06:02:58.215Z,23.00
2019-03-22T06:05:26.687Z,30.82
2019-03-22T06:07:55.146Z,23.20
2019-03-22T06:10:23.668Z,19.80
2019-03-22T06:12:52.120Z,21.82
2019-03-22T06:15:20.583Z,17.80
2019-03-22T06:17:51.996Z,21.15
2019-03-22T06:20:19.229Z,32.53
2019-03-22T06:22:47.696Z,24.90
2019-03-22T06:25:16.158Z,31.10
2019-03-22T06:27:44.616Z,21.40
2019-03-22T06:30:13.800Z,29.45
2019-03-22T06:32:42.268Z,25.85
2019-03-22T06:35:10.787Z,18.45
2019-03-22T06:37:39.248Z,20.37
2019-03-22T06:40:08.872Z,20.92
2019-03-22T06:42:37.327Z,24.07
2019-03-22T06:45:06.424Z,18.77
2019-03-22T06:47:34.876Z,21.57
2019-03-22T06:50:04.359Z,14.07
2019-03-22T06:52:32.862Z,15.53
2019-03-22T06:55:01.423Z,16.35
2019-03-22T06:57:29.870Z,16.60
2019-03-22T07:00:06.614Z,19.42
2019-03-22T07:02:28.596Z,18.82
2019-03-22T07:04:57.130Z,16.17
2019-03-22T07:07:25.686Z,16.90
2019-03-22T07:09:54.141Z,17.45
2019-03-22T07:12:22.680Z,17.65
2019-03-22T07:14:51.148Z,24.82
2019-03-22T07:17:19.659Z,19.27
2019-03-22T07:19:48.151Z,19.62
2019-03-22T07:22:16.608Z,18.60
2019-03-22T07:24:45.083Z,17.57
2019-03-22T07:27:13.558Z,19.17
2019-03-22T07:29:42.103Z,19.05
2019-03-22T07:32:10.627Z,18.57
2019-03-22T07:34:39.086Z,18.70
2019-03-22T07:37:11.659Z,20.97
2019-03-22T07:42:07.783Z,17.37
2019-03-22T07:44:36.238Z,20.57
2019-03-22T07:47:04.710Z,16.12
2019-03-22T07:49:33.229Z,14.68
2019-03-22T07:52:01.693Z,11.85
2019-03-22T07:54:30.139Z,19.27
2019-03-22T07:56:58.599Z,16.10
2019-03-22T07:59:27.087Z,13.70
2019-03-22T08:01:55.579Z,12.65
2019-03-22T08:04:24.096Z,13.08
2019-03-22T08:06:52.537Z,13.32
2019-03-22T08:09:21.005Z,15.75
2019-03-22T08:11:49.453Z,13.20
2019-03-22T08:14:17.925Z,13.50
2019-03-22T08:16:46.434Z,13.78
2019-03-22T08:19:14.896Z,14.53
2019-03-22T08:21:43.412Z,16.30
2019-03-22T08:24:11.928Z,17.15
2019-03-22T08:26:40.414Z,14.75
2019-03-22T08:29:08.894Z,16.10
2019-03-22T08:31:37.426Z,15.10
2019-03-22T08:34:05.931Z,13.93
2019-03-22T08:36:34.453Z,15.10
2019-03-22T08:39:02.900Z,15.08
2019-03-22T08:41:31.361Z,21.45
2019-03-22T08:44:02.619Z,14.93
2019-03-22T08:46:30.064Z,13.45
2019-03-22T08:48:58.626Z,16.42
2019-03-22T08:51:29.775Z,14.73
2019-03-22T08:53:57.268Z,15.93
2019-03-22T08:56:25.796Z,17.10
2019-03-22T08:58:54.279Z,20.20
2019-03-22T09:01:22.776Z,15.10
2019-03-22T09:03:51.300Z,15.40
2019-03-22T09:06:19.786Z,22.37
2019-03-22T09:08:48.289Z,14.07
2019-03-22T09:11:18.110Z,14.70
2019-03-22T09:13:46.972Z,15.03
2019-03-22T09:16:15.459Z,15.08
2019-03-22T09:18:43.984Z,11.80
2019-03-22T09:21:12.522Z,14.15
2019-03-22T09:23:41.064Z,14.05
2019-03-22T09:26:09.551Z,11.22
2019-03-22T09:28:38.001Z,14.18
2019-03-22T09:31:10.512Z,14.68
2019-03-22T09:33:36.728Z,14.18
2019-03-22T09:36:05.180Z,16.50
2019-03-22T09:38:33.649Z,13.85
2019-03-22T09:41:02.160Z,11.85
2019-03-22T09:43:30.730Z,15.18
2019-03-22T09:45:59.335Z,12.85
2019-03-22T09:48:27.860Z,11.35
2019-03-22T09:50:56.355Z,9.63
2019-03-22T09:53:24.859Z,9.03
2019-03-22T09:55:53.342Z,12.88
2019-03-22T09:58:21.791Z,10.85
2019-03-22T10:00:50.362Z,8.43
2019-03-22T10:03:18.895Z,8.28
2019-03-22T10:05:47.427Z,12.05
2019-03-22T10:08:15.880Z,10.13
2019-03-22T10:10:44.386Z,10.15
2019-03-22T10:13:12.871Z,9.65
2019-03-22T10:15:41.433Z,14.38
2019-03-22T10:18:09.914Z,10.90
2019-03-22T10:20:38.429Z,13.90
2019-03-22T10:23:06.934Z,8.58
2019-03-22T10:25:35.524Z,9.95
2019-03-22T10:28:04.085Z,9.73
2019-03-22T10:30:32.541Z,11.15
2019-03-22T10:33:01.152Z,9.45
2019-03-22T10:35:29.630Z,10.48
2019-03-22T10:38:00.911Z,9.88
2019-03-22T10:40:28.384Z,10.82
2019-03-22T10:42:56.898Z,7.95
2019-03-22T10:45:25.407Z,7.12
2019-03-22T10:47:53.972Z,9.75
2019-03-22T10:50:22.518Z,7.45
2019-03-22T10:52:51.080Z,12.10
2019-03-22T10:55:29.593Z,11.68
2019-03-22T10:57:49.721Z,13.25
2019-03-22T11:00:18.754Z,13.50
2019-03-22T11:02:47.319Z,14.50
2019-03-22T11:05:16.305Z,11.70
2019-03-22T11:07:44.777Z,13.30
2019-03-22T11:10:13.932Z,12.58
2019-03-22T11:12:42.472Z,13.25
2019-03-22T11:15:13.077Z,14.55
2019-03-22T11:17:41.540Z,13.30
2019-03-22T11:20:13.049Z,19.67
2019-03-22T11:22:41.638Z,14.65
2019-03-22T11:25:10.699Z,16.77
2019-03-22T11:27:39.248Z,16.02
2019-03-22T11:30:11.383Z,14.65
2019-03-22T11:32:39.995Z,13.22
2019-03-22T11:35:09.086Z,12.68
2019-03-22T11:37:37.544Z,16.10
2019-03-22T11:40:08.948Z,16.10
2019-03-22T11:42:37.484Z,13.70
2019-03-22T11:45:08.544Z,13.10
2019-03-22T11:47:36.997Z,23.50
2019-03-22T11:50:07.796Z,19.00
2019-03-22T11:52:36.408Z,17.10
2019-03-22T11:55:07.616Z,15.70
2019-03-22T11:57:36.080Z,15.75
2019-03-22T12:00:07.607Z,12.35
2019-03-22T12:02:36.066Z,20.15
2019-03-22T12:05:06.475Z,14.07
2019-03-22T12:07:34.997Z,16.00
2019-03-22T12:10:08.062Z,17.62
2019-03-22T12:12:36.595Z,14.38
2019-03-22T12:15:08.263Z,15.20
2019-03-22T12:17:36.932Z,16.30
2019-03-22T12:20:08.803Z,16.45
2019-03-22T12:22:38.606Z,16.32
2019-03-22T12:25:09.185Z,19.07
2019-03-22T12:27:37.674Z,16.12
2019-03-22T12:30:14.751Z,15.05
2019-03-22T12:32:43.245Z,14.50
2019-03-22T12:35:13.030Z,15.78
2019-03-22T12:37:41.556Z,17.42
2019-03-22T12:40:20.439Z,16.27
2019-03-22T12:42:49.451Z,14.75
2019-03-22T12:45:33.647Z,16.37
2019-03-22T12:48:02.120Z,13.20
2019-03-22T12:50:30.695Z,15.75
2019-03-22T12:52:59.168Z,20.50
2019-03-22T12:55:27.643Z,18.67
2019-03-22T12:57:56.171Z,18.00
2019-03-22T13:00:25.678Z,18.98
2019-03-22T13:02:54.600Z,16.82
2019-03-22T13:05:24.003Z,16.35
2019-03-22T13:07:52.681Z,13.32
2019-03-22T13:10:26.452Z,15.60
2019-03-22T13:12:55.210Z,17.85
2019-03-22T13:15:23.815Z,13.85
2019-03-22T13:17:52.312Z,16.20
2019-03-22T13:20:20.768Z,15.90
2019-03-22T13:22:49.320Z,19.85
2019-03-22T13:25:18.532Z,13.65
2019-03-22T13:27:47.056Z,15.80
2019-03-22T13:30:30.623Z,13.35
2019-03-22T13:32:59.588Z,13.60
2019-03-22T13:35:28.056Z,14.70
2019-03-22T13:37:56.499Z,11.93
2019-03-22T13:40:24.977Z,14.60
2019-03-22T13:42:53.567Z,12.60
2019-03-22T13:45:22.027Z,13.80
2019-03-22T13:47:50.479Z,15.80
2019-03-22T13:50:19.111Z,18.70
2019-03-22T13:52:47.566Z,15.15
2019-03-22T13:55:16.103Z,13.25
2019-03-22T13:57:44.626Z,16.65
2019-03-22T14:00:15.221Z,14.13
2019-03-22T14:02:43.690Z,15.08
2019-03-22T14:05:12.463Z,17.12
2019-03-22T14:07:40.923Z,16.77
2019-03-22T14:10:11.988Z,14.98
2019-03-22T14:12:40.487Z,14.25
2019-03-22T14:15:09.456Z,17.62
2019-03-22T14:17:37.939Z,16.23
2019-03-22T14:20:11.413Z,15.00
2019-03-22T14:22:37.389Z,13.48
2019-03-22T14:25:06.830Z,13.20
2019-03-22T14:27:35.284Z,14.50
2019-03-22T14:30:06.384Z,15.35
2019-03-22T14:32:36.375Z,17.25
2019-03-22T14:35:06.577Z,16.00
2019-03-22T14:37:35.038Z,14.50
2019-03-22T14:40:05.060Z,15.00
2019-03-22T14:42:34.673Z,14.00
2019-03-22T14:45:05.436Z,16.37
2019-03-22T14:47:33.985Z,14.93
2019-03-22T14:50:05.722Z,12.35
2019-03-22T14:52:38.068Z,14.33
2019-03-22T14:55:06.696Z,12.90
2019-03-22T14:57:35.153Z,14.07
2019-03-22T15:00:07.990Z,13.15
2019-03-22T15:02:36.516Z,13.20
2019-03-22T15:05:06.403Z,15.23
2019-03-22T15:07:34.873Z,12.45
2019-03-22T15:10:04.980Z,13.48
2019-03-22T15:12:33.521Z,12.53
2019-03-22T15:15:12.450Z,18.40
2019-03-22T15:17:42.632Z,15.18
2019-03-22T15:20:29.516Z,13.72
2019-03-22T15:23:13.397Z,14.70
2019-03-22T15:25:59.786Z,14.75
2019-03-22T15:28:46.373Z,15.28
2019-03-22T15:31:22.474Z,14.07
2019-03-22T15:34:08.805Z,14.98
2019-03-22T15:36:38.907Z,12.75
2019-03-22T15:39:26.181Z,17.35
2019-03-22T15:41:54.915Z,13.70
2019-03-22T15:46:51.925Z,12.88
2019-03-22T15:49:20.377Z,16.32
2019-03-22T15:51:48.956Z,14.13
2019-03-22T15:54:17.473Z,15.25
2019-03-22T15:56:45.933Z,15.05
2019-03-22T15:59:14.402Z,16.57
2019-03-22T16:01:42.856Z,14.33
2019-03-22T16:04:11.397Z,15.18
2019-03-22T16:06:39.862Z,13.00
2019-03-22T16:09:08.702Z,15.58
2019-03-22T16:11:37.232Z,16.10
2019-03-22T16:14:05.958Z,13.48
2019-03-22T16:16:34.410Z,14.40
2019-03-22T16:19:02.885Z,15.28
2019-03-22T16:21:31.346Z,14.87
2019-03-22T16:23:59.797Z,14.87
2019-03-22T16:26:28.295Z,15.08
2019-03-22T16:28:56.781Z,13.68
2019-03-22T16:31:25.248Z,16.75
2019-03-22T16:33:54.780Z,15.30
2019-03-22T16:36:23.735Z,15.38
2019-03-22T16:38:52.196Z,22.05
2019-03-22T16:41:20.640Z,16.27
2019-03-22T16:43:49.091Z,15.75
2019-03-22T16:46:17.680Z,18.12
2019-03-22T16:48:46.166Z,17.23
2019-03-22T16:51:14.622Z,17.32
2019-03-22T16:53:43.126Z,20.97
2019-03-22T16:56:11.612Z,16.05
2019-03-22T16:58:40.088Z,18.42
2019-03-22T17:01:08.564Z,15.48
2019-03-22T17:03:37.092Z,17.75
2019-03-22T17:06:05.560Z,17.60
2019-03-22T17:08:34.024Z,20.72
2019-03-22T17:11:02.562Z,20.97
2019-03-22T17:13:31.114Z,21.93
2019-03-22T17:15:59.556Z,17.85
2019-03-22T17:18:28.051Z,19.50
2019-03-22T17:20:56.512Z,20.77
2019-03-22T17:23:24.990Z,21.30
2019-03-22T17:25:53.449Z,17.45
2019-03-22T17:28:21.923Z,19.85
2019-03-22T17:30:50.397Z,20.62
2019-03-22T17:33:18.935Z,17.00
2019-03-22T17:35:47.417Z,18.17
2019-03-22T17:38:15.975Z,18.77
2019-03-22T17:40:44.511Z,20.95
2019-03-22T17:43:13.055Z,23.30
2019-03-22T17:45:41.615Z,19.87
2019-03-22T17:48:10.167Z,23.67
2019-03-22T17:50:38.655Z,26.52
2019-03-22T17:53:07.191Z,27.48
2019-03-22T17:55:35.677Z,30.27
2019-03-22T17:58:04.254Z,27.77
2019-03-22T18:00:32.816Z,24.20
2019-03-22T18:03:01.382Z,25.57
2019-03-22T18:05:29.943Z,29.72
2019-03-22T18:07:58.421Z,27.13
2019-03-22T18:10:26.895Z,24.75
2019-03-22T18:12:55.434Z,26.17
2019-03-22T18:15:23.913Z,27.35
2019-03-22T18:17:52.439Z,28.10
2019-03-22T18:20:20.905Z,39.85
2019-03-22T18:22:49.399Z,34.13
2019-03-22T18:25:17.850Z,26.02
2019-03-22T18:27:46.294Z,27.42
2019-03-22T18:30:17.204Z,32.50
2019-03-22T18:32:45.717Z,24.20
2019-03-22T18:35:14.263Z,26.20
2019-03-22T18:37:42.791Z,26.93
2019-03-22T18:40:15.245Z,27.07
2019-03-22T18:42:43.912Z,28.40
2019-03-22T18:45:15.653Z,29.37
2019-03-22T18:47:44.220Z,39.65
2019-03-22T18:50:13.752Z,38.40
2019-03-22T18:52:42.208Z,37.17
2019-03-22T18:55:10.841Z,35.70
2019-03-22T18:57:39.368Z,33.10
2019-03-22T19:00:13.592Z,31.77
2019-03-22T19:02:42.078Z,36.25
2019-03-22T19:05:10.669Z,34.13
2019-03-22T19:07:39.224Z,34.35
2019-03-22T19:10:10.910Z,34.80
2019-03-22T19:12:39.429Z,34.47
2019-03-22T19:15:15.341Z,33.75
2019-03-22T19:17:43.864Z,34.27
2019-03-22T19:20:14.870Z,48.25
2019-03-22T19:22:43.431Z,33.30
2019-03-22T19:25:14.395Z,31.62
2019-03-22T19:27:42.621Z,41.68
2019-03-22T19:30:13.708Z,59.90
2019-03-22T19:32:42.174Z,59.45
2019-03-22T19:35:11.137Z,44.75
2019-03-22T19:37:39.589Z,44.50
2019-03-22T19:40:13.640Z,46.55
2019-03-22T19:42:42.119Z,38.10
2019-03-22T19:45:11.993Z,35.48
2019-03-22T19:47:40.557Z,25.05
2019-03-22T19:50:14.016Z,32.00
2019-03-22T19:52:43.027Z,30.82
2019-03-22T19:55:11.993Z,28.40
2019-03-22T19:57:40.465Z,31.02
2019-03-22T20:00:11.884Z,29.00
2019-03-22T20:02:40.360Z,29.67
2019-03-22T20:05:09.548Z,27.65
2019-03-22T20:07:40.205Z,33.60
2019-03-22T20:10:11.630Z,31.93
2019-03-22T20:12:40.227Z,25.32
2019-03-22T20:15:09.967Z,35.38
2019-03-22T20:17:38.671Z,31.45
2019-03-22T20:20:08.813Z,26.80
2019-03-22T20:22:37.337Z,34.30
2019-03-22T20:25:07.928Z,27.95
2019-03-22T20:27:36.472Z,28.62
2019-03-22T20:30:07.571Z,30.62
2019-03-22T20:32:36.076Z,28.52
2019-03-22T20:35:15.768Z,32.67
2019-03-22T20:37:37.560Z,28.65
2019-03-22T20:40:08.727Z,31.07
2019-03-22T20:42:37.184Z,34.50
2019-03-22T20:45:06.394Z,28.75
2019-03-22T20:47:34.894Z,26.52
2019-03-22T20:50:05.056Z,25.55
2019-03-22T20:52:33.514Z,33.65
2019-03-22T20:55:02.006Z,27.37
2019-03-22T20:57:30.540Z,27.48
2019-03-22T20:59:59.013Z,30.32
2019-03-22T21:02:27.584Z,23.60
2019-03-22T21:04:56.044Z,28.35
2019-03-22T21:07:24.508Z,25.88
2019-03-22T21:09:53.076Z,29.52
2019-03-22T21:12:21.620Z,26.02
2019-03-22T21:14:50.227Z,32.98
2019-03-22T21:17:18.714Z,26.37
2019-03-22T21:19:47.166Z,26.70
2019-03-22T21:22:15.619Z,23.95
2019-03-22T21:24:44.100Z,25.80
2019-03-22T21:27:15.943Z,25.77
2019-03-22T21:29:44.418Z,31.45
2019-03-22T21:32:12.964Z,28.42
2019-03-22T21:34:43.855Z,26.77
2019-03-22T21:37:11.666Z,35.52
2019-03-22T21:39:40.211Z,25.65
2019-03-22T21:42:08.681Z,22.77
2019-03-22T21:44:37.188Z,24.98
2019-03-22T21:47:05.721Z,27.58
2019-03-22T21:49:34.252Z,22.67
2019-03-22T21:52:02.720Z,27.75
2019-03-22T21:54:31.204Z,25.62
2019-03-22T21:56:59.679Z,25.27
2019-03-22T21:59:28.233Z,24.15
2019-03-22T22:01:56.715Z,28.45
2019-03-22T22:04:25.183Z,28.23
2019-03-22T22:06:53.629Z,31.82
2019-03-22T22:09:22.087Z,29.45
2019-03-22T22:11:50.559Z,26.82
2019-03-22T22:14:19.017Z,24.00
2019-03-22T22:16:47.469Z,28.25
2019-03-22T22:19:15.933Z,24.90
2019-03-22T22:21:44.410Z,24.07
2019-03-22T22:24:12.941Z,22.77
2019-03-22T22:26:41.392Z,25.02
2019-03-22T22:29:09.867Z,23.67
2019-03-22T22:31:38.413Z,21.42
2019-03-22T22:34:06.930Z,20.30
2019-03-22T22:36:35.428Z,22.98
2019-03-22T22:39:05.356Z,24.43
2019-03-22T22:41:33.986Z,22.13
2019-03-22T22:44:02.446Z,23.22
2019-03-22T22:46:30.920Z,25.57
2019-03-22T22:48:59.387Z,19.87
2019-03-22T22:51:27.860Z,18.52
2019-03-22T22:53:59.148Z,21.35
2019-03-22T22:56:27.614Z,22.87
2019-03-22T22:58:56.090Z,21.45
2019-03-22T23:01:24.558Z,21.82
2019-03-22T23:03:53.033Z,20.27
2019-03-22T23:06:21.501Z,17.57
2019-03-22T23:08:49.976Z,18.62
2019-03-22T23:11:18.440Z,16.20
2019-03-22T23:13:46.996Z,17.98
2019-03-22T23:16:15.452Z,19.10
2019-03-22T23:18:43.922Z,19.00
2019-03-22T23:21:12.416Z,20.57
2019-03-22T23:23:40.884Z,20.17
2019-03-22T23:26:09.346Z,19.02
2019-03-22T23:28:37.853Z,18.75
2019-03-22T23:31:06.305Z,20.45
2019-03-22T23:33:34.784Z,19.92
2019-03-22T23:36:03.324Z,18.35
2019-03-22T23:38:31.794Z,18.75
2019-03-22T23:41:00.251Z,19.50
2019-03-22T23:43:28.751Z,23.18
2019-03-22T23:45:57.225Z,18.52
2019-03-22T23:48:25.701Z,22.17
2019-03-22T23:50:54.171Z,21.00
2019-03-22T23:53:22.644Z,23.42
2019-03-22T23:55:55.656Z,17.35
2019-03-22T23:58:24.147Z,17.92
